createdAt,value
2018-08-22T00:00:12.011Z,99.90
2018-08-22T00:02:41.145Z,99.90
2018-08-22T00:05:10.974Z,99.90
2018-08-22T00:07:40.089Z,99.90
2018-08-22T00:10:09.326Z,99.90
2018-08-22T00:12:38.452Z,99.90
2018-08-22T00:15:07.605Z,99.90
2018-08-22T00:17:37.608Z,99.90
2018-08-22T00:20:06.672Z,99.90
2018-08-22T00:22:36.391Z,99.90
2018-08-22T00:25:05.529Z,99.90
2018-08-22T00:27:34.639Z,99.90
2018-08-22T00:30:03.808Z,99.90
2018-08-22T00:32:32.966Z,99.90
2018-08-22T00:35:02.126Z,99.90
2018-08-22T00:37:31.416Z,99.90
2018-08-22T00:40:00.636Z,99.90
2018-08-22T00:42:29.795Z,99.90
2018-08-22T00:44:58.888Z,99.90
2018-08-22T00:47:28.153Z,99.90
2018-08-22T00:49:57.310Z,99.90
2018-08-22T00:52:26.438Z,99.90
2018-08-22T00:54:56.117Z,99.90
2018-08-22T00:57:25.293Z,99.90
2018-08-22T00:59:55.262Z,99.90
2018-08-22T01:02:24.312Z,99.90
2018-08-22T01:04:53.404Z,99.90
2018-08-22T01:07:22.536Z,99.90
2018-08-22T01:09:51.825Z,99.90
2018-08-22T01:12:20.961Z,99.90
2018-08-22T01:14:50.130Z,99.90
2018-08-22T01:17:19.271Z,99.90
2018-08-22T01:19:48.363Z,99.90
2018-08-22T01:22:17.663Z,99.90
2018-08-22T01:24:46.766Z,99.90
2018-08-22T01:27:21.541Z,99.90
2018-08-22T01:29:52.731Z,99.90
2018-08-22T01:32:22.820Z,99.90
2018-08-22T01:34:52.796Z,99.90
2018-08-22T01:37:21.972Z,99.90
2018-08-22T01:39:51.016Z,99.90
2018-08-22T01:42:20.143Z,99.90
2018-08-22T01:44:49.411Z,99.90
2018-08-22T01:47:19.135Z,99.90
2018-08-22T01:49:48.195Z,99.90
2018-08-22T01:52:17.372Z,99.90
2018-08-22T01:54:46.571Z,99.90
2018-08-22T01:57:15.623Z,99.90
2018-08-22T01:59:44.960Z,99.90
2018-08-22T02:02:14.125Z,99.90
2018-08-22T02:04:43.196Z,99.90
2018-08-22T02:07:12.292Z,99.90
2018-08-22T02:09:41.340Z,99.90
2018-08-22T02:12:10.401Z,99.90
2018-08-22T02:14:39.617Z,99.90
2018-08-22T02:17:08.671Z,99.90
2018-08-22T02:19:37.764Z,99.90
2018-08-22T02:22:06.804Z,99.90
2018-08-22T02:24:35.887Z,99.90
2018-08-22T02:27:05.188Z,99.90
2018-08-22T02:29:34.312Z,99.90
2018-08-22T02:32:03.397Z,99.90
2018-08-22T02:34:32.590Z,99.90
2018-08-22T02:37:01.665Z,99.90
2018-08-22T02:39:30.711Z,99.90
2018-08-22T02:41:59.982Z,99.90
2018-08-22T02:44:29.082Z,99.90
2018-08-22T02:46:58.172Z,99.90
2018-08-22T02:49:27.273Z,99.90
2018-08-22T02:51:56.373Z,99.90
2018-08-22T02:54:25.427Z,99.90
2018-08-22T02:56:54.508Z,99.90
2018-08-22T02:59:23.824Z,99.90
2018-08-22T03:01:53.091Z,99.90
2018-08-22T03:04:22.437Z,99.90
2018-08-22T03:06:51.556Z,99.90
2018-08-22T03:09:20.666Z,99.90
2018-08-22T03:11:49.760Z,99.90
2018-08-22T03:14:18.844Z,99.90
2018-08-22T03:16:48.008Z,99.90
2018-08-22T03:19:17.152Z,99.90
2018-08-22T03:21:46.269Z,99.90
2018-08-22T03:24:15.407Z,99.90
2018-08-22T03:26:44.609Z,99.90
2018-08-22T03:29:13.694Z,99.90
2018-08-22T03:31:42.766Z,99.90
2018-08-22T03:34:11.874Z,99.90
2018-08-22T03:36:41.001Z,99.90
2018-08-22T03:39:10.220Z,99.90
2018-08-22T03:41:40.953Z,99.90
2018-08-22T03:44:10.023Z,99.90
2018-08-22T03:46:39.148Z,99.90
2018-08-22T03:49:08.257Z,99.90
2018-08-22T03:51:37.300Z,99.90
2018-08-22T03:54:06.353Z,99.90
2018-08-22T03:56:35.434Z,99.90
2018-08-22T03:59:04.521Z,99.90
2018-08-22T04:01:33.649Z,99.90
2018-08-22T04:04:02.733Z,99.90
2018-08-22T04:06:31.832Z,99.90
2018-08-22T04:09:00.936Z,99.90
2018-08-22T04:11:30.033Z,99.90
2018-08-22T04:13:59.113Z,99.90
2018-08-22T04:16:28.282Z,99.90
2018-08-22T04:18:57.449Z,99.90
2018-08-22T04:21:26.533Z,99.90
2018-08-22T04:23:55.604Z,99.90
2018-08-22T04:26:25.012Z,99.90
2018-08-22T04:28:54.355Z,99.90
2018-08-22T04:31:23.524Z,99.90
2018-08-22T04:33:52.664Z,99.90
2018-08-22T04:36:21.901Z,99.90
2018-08-22T04:38:51.007Z,99.90
2018-08-22T04:41:20.106Z,99.90
2018-08-22T04:43:49.209Z,99.90
2018-08-22T04:46:18.298Z,99.90
2018-08-22T04:48:47.505Z,99.90
2018-08-22T04:51:16.565Z,99.90
2018-08-22T04:53:45.676Z,99.90
2018-08-22T04:56:14.764Z,99.90
2018-08-22T04:58:43.853Z,99.90
2018-08-22T05:01:13.102Z,99.90
2018-08-22T05:03:42.228Z,99.90
2018-08-22T05:06:11.303Z,99.90
2018-08-22T05:08:40.521Z,99.90
2018-08-22T05:11:09.630Z,99.90
2018-08-22T05:13:38.725Z,99.90
2018-08-22T05:16:07.972Z,99.90
2018-08-22T05:18:37.207Z,99.90
2018-08-22T05:21:06.392Z,99.90
2018-08-22T05:23:35.452Z,99.90
2018-08-22T05:26:04.691Z,99.90
2018-08-22T05:28:33.827Z,99.90
2018-08-22T05:31:02.956Z,99.90
2018-08-22T05:33:32.145Z,99.90
2018-08-22T05:36:01.276Z,99.90
2018-08-22T05:38:30.329Z,99.90
2018-08-22T05:40:59.479Z,99.90
2018-08-22T05:43:28.609Z,99.90
2018-08-22T05:45:57.684Z,99.90
2018-08-22T05:48:27.642Z,99.90
2018-08-22T05:50:56.795Z,99.90
2018-08-22T05:53:26.014Z,99.90
2018-08-22T05:55:55.137Z,99.90
2018-08-22T05:58:24.242Z,99.90
2018-08-22T06:00:54.008Z,99.90
2018-08-22T06:03:23.383Z,99.90
2018-08-22T06:05:52.445Z,99.90
2018-08-22T06:08:21.745Z,99.90
2018-08-22T06:10:50.986Z,99.90
2018-08-22T06:13:20.159Z,99.90
2018-08-22T06:15:49.268Z,99.90
2018-08-22T06:18:18.371Z,99.90
2018-08-22T06:20:47.508Z,99.90
2018-08-22T06:23:16.612Z,99.90
2018-08-22T06:25:45.827Z,99.90
2018-08-22T06:28:14.937Z,99.90
2018-08-22T06:30:44.241Z,99.90
2018-08-22T06:33:13.316Z,99.90
2018-08-22T06:35:42.416Z,99.90
2018-08-22T06:38:11.594Z,99.90
2018-08-22T06:40:40.812Z,99.90
2018-08-22T06:43:09.908Z,99.90
2018-08-22T06:45:38.999Z,99.90
2018-08-22T06:48:08.099Z,99.90
2018-08-22T06:50:37.312Z,99.90
2018-08-22T06:53:06.709Z,99.90
2018-08-22T06:55:35.955Z,99.90
2018-08-22T06:58:05.206Z,99.90
2018-08-22T07:00:34.393Z,99.90
2018-08-22T07:03:03.487Z,99.90
2018-08-22T07:05:32.651Z,99.90
2018-08-22T07:08:01.756Z,99.90
2018-08-22T07:10:30.921Z,99.90
2018-08-22T07:13:00.007Z,99.90
2018-08-22T07:15:29.346Z,99.90
2018-08-22T07:17:58.444Z,99.90
2018-08-22T07:20:27.505Z,99.90
2018-08-22T07:22:56.572Z,99.90
2018-08-22T07:25:26.233Z,99.90
2018-08-22T07:27:55.411Z,99.90
2018-08-22T07:30:24.564Z,99.90
2018-08-22T07:32:53.692Z,99.90
2018-08-22T07:35:22.818Z,99.90
2018-08-22T07:37:52.006Z,99.90
2018-08-22T07:40:21.117Z,99.90
2018-08-22T07:42:50.176Z,99.90
2018-08-22T07:45:19.254Z,99.90
2018-08-22T07:47:48.486Z,99.90
2018-08-22T07:50:17.633Z,99.90
2018-08-22T07:52:53.720Z,99.90
2018-08-22T07:55:23.744Z,99.90
2018-08-22T07:57:52.827Z,99.90
2018-08-22T08:00:22.003Z,99.90
2018-08-22T08:02:51.107Z,98.70
2018-08-22T08:05:20.182Z,99.90
2018-08-22T08:07:49.394Z,99.90
2018-08-22T08:10:24.049Z,99.10
2018-08-22T08:12:53.168Z,99.20
2018-08-22T08:15:22.288Z,99.80
2018-08-22T08:17:51.572Z,97.60
2018-08-22T08:20:20.854Z,98.20
2018-08-22T08:22:50.061Z,98.40
2018-08-22T08:25:19.340Z,99.90
2018-08-22T08:27:48.486Z,99.90
2018-08-22T08:30:17.634Z,99.90
2018-08-22T08:32:47.083Z,97.10
2018-08-22T08:35:16.318Z,93.80
2018-08-22T08:37:45.503Z,92.10
2018-08-22T08:40:14.694Z,92.40
2018-08-22T08:42:43.875Z,92.40
2018-08-22T08:45:13.008Z,93.70
2018-08-22T08:47:42.281Z,97.00
2018-08-22T08:50:11.362Z,99.70
2018-08-22T08:52:40.638Z,98.50
2018-08-22T08:55:09.810Z,94.30
2018-08-22T08:57:38.994Z,91.00
2018-08-22T09:00:08.180Z,92.70
2018-08-22T09:02:37.355Z,90.70
2018-08-22T09:05:06.470Z,92.30
2018-08-22T09:07:35.490Z,87.90
2018-08-22T09:10:05.585Z,88.00
2018-08-22T09:12:36.776Z,87.30
2018-08-22T09:15:06.697Z,86.90
2018-08-22T09:17:35.845Z,91.90
2018-08-22T09:20:06.987Z,90.70
2018-08-22T09:22:36.264Z,84.30
2018-08-22T09:25:05.523Z,85.50
2018-08-22T09:27:34.692Z,84.70
2018-08-22T09:30:03.877Z,84.30
2018-08-22T09:32:32.968Z,81.10
2018-08-22T09:35:02.184Z,81.60
2018-08-22T09:37:31.282Z,80.70
2018-08-22T09:40:00.555Z,77.30
2018-08-22T09:42:29.573Z,75.80
2018-08-22T09:44:58.722Z,78.70
2018-08-22T09:47:27.887Z,84.90
2018-08-22T09:49:57.089Z,78.70
2018-08-22T09:52:26.176Z,77.30
2018-08-22T09:55:02.098Z,78.50
2018-08-22T09:57:31.673Z,82.70
2018-08-22T10:00:00.788Z,82.20
2018-08-22T10:02:29.872Z,81.20
2018-08-22T10:05:00.177Z,77.40
2018-08-22T10:07:29.471Z,74.70
2018-08-22T10:09:58.827Z,70.30
2018-08-22T10:12:27.916Z,73.00
2018-08-22T10:14:57.276Z,79.30
2018-08-22T10:17:26.463Z,82.90
2018-08-22T10:19:55.587Z,79.20
2018-08-22T10:22:24.966Z,72.30
2018-08-22T10:24:54.081Z,69.20
2018-08-22T10:27:23.440Z,69.40
2018-08-22T10:29:52.549Z,67.80
2018-08-22T10:32:21.787Z,69.10
2018-08-22T10:34:50.953Z,65.40
2018-08-22T10:37:20.051Z,64.30
2018-08-22T10:39:49.353Z,62.70
2018-08-22T10:42:18.697Z,63.60
2018-08-22T10:44:47.960Z,63.50
2018-08-22T10:47:17.237Z,63.00
2018-08-22T10:49:46.355Z,59.60
2018-08-22T10:52:16.777Z,65.50
2018-08-22T10:54:45.887Z,59.80
2018-08-22T10:57:15.240Z,61.70
2018-08-22T10:59:44.372Z,61.10
2018-08-22T11:02:14.440Z,58.50
2018-08-22T11:04:43.595Z,55.70
2018-08-22T11:07:12.982Z,58.80
2018-08-22T11:09:42.139Z,56.10
2018-08-22T11:12:11.297Z,56.30
2018-08-22T11:14:40.413Z,58.20
2018-08-22T11:17:09.500Z,53.80
2018-08-22T11:19:38.707Z,55.70
2018-08-22T11:22:19.393Z,52.20
2018-08-22T11:24:59.992Z,49.90
2018-08-22T11:27:40.397Z,49.70
2018-08-22T11:30:20.985Z,50.60
2018-08-22T11:33:01.425Z,48.30
2018-08-22T11:35:29.726Z,48.90
2018-08-22T11:37:58.882Z,49.60
2018-08-22T11:40:28.281Z,48.70
2018-08-22T11:42:57.668Z,49.60
2018-08-22T11:45:26.862Z,47.30
2018-08-22T11:47:56.547Z,44.90
2018-08-22T11:50:25.676Z,47.80
2018-08-22T11:52:56.234Z,46.30
2018-08-22T11:55:25.769Z,50.60
2018-08-22T11:57:55.250Z,49.50
2018-08-22T12:00:24.698Z,48.80
2018-08-22T12:02:53.967Z,50.30
2018-08-22T12:05:23.394Z,49.10
2018-08-22T12:07:53.028Z,48.80
2018-08-22T12:10:26.280Z,48.30
2018-08-22T12:12:56.315Z,46.00
2018-08-22T12:15:25.511Z,45.80
2018-08-22T12:17:54.820Z,47.10
2018-08-22T12:20:23.916Z,48.30
2018-08-22T12:22:53.046Z,48.80
2018-08-22T12:25:22.376Z,49.40
2018-08-22T12:27:51.489Z,47.60
2018-08-22T12:30:20.618Z,44.90
2018-08-22T12:32:49.669Z,46.60
2018-08-22T12:35:18.886Z,45.70
2018-08-22T12:37:48.174Z,45.30
2018-08-22T12:40:17.220Z,44.70
2018-08-22T12:42:47.272Z,46.80
2018-08-22T12:45:16.370Z,44.70
2018-08-22T12:47:45.446Z,46.80
2018-08-22T12:50:14.569Z,46.70
2018-08-22T12:52:43.592Z,44.60
2018-08-22T12:55:13.285Z,43.80
2018-08-22T12:57:42.364Z,45.90
2018-08-22T13:00:11.526Z,44.80
2018-08-22T13:02:40.648Z,42.30
2018-08-22T13:05:09.896Z,43.80
2018-08-22T13:07:38.942Z,43.30
2018-08-22T13:10:08.196Z,43.10
2018-08-22T13:12:37.385Z,45.00
2018-08-22T13:15:07.587Z,45.20
2018-08-22T13:17:36.700Z,44.40
2018-08-22T13:20:06.288Z,42.40
2018-08-22T13:22:35.337Z,42.10
2018-08-22T13:25:04.436Z,43.10
2018-08-22T13:27:33.501Z,42.80
2018-08-22T13:30:02.608Z,43.50
2018-08-22T13:32:31.736Z,43.40
2018-08-22T13:35:00.820Z,42.80
2018-08-22T13:37:29.989Z,43.00
2018-08-22T13:39:59.055Z,43.80
2018-08-22T13:42:28.768Z,44.30
2018-08-22T13:44:57.852Z,43.20
2018-08-22T13:47:26.949Z,42.90
2018-08-22T13:49:56.023Z,42.80
2018-08-22T13:52:25.201Z,41.90
2018-08-22T13:54:54.545Z,41.60
2018-08-22T13:57:23.737Z,42.70
2018-08-22T13:59:52.815Z,42.00
2018-08-22T14:02:21.949Z,45.40
2018-08-22T14:04:51.017Z,44.50
2018-08-22T14:07:20.132Z,44.20
2018-08-22T14:09:49.280Z,45.00
2018-08-22T14:12:18.380Z,45.30
2018-08-22T14:14:47.704Z,44.00
2018-08-22T14:17:16.778Z,42.40
2018-08-22T14:19:45.902Z,41.50
2018-08-22T14:22:15.678Z,42.80
2018-08-22T14:24:44.827Z,44.20
2018-08-22T14:27:13.951Z,42.50
2018-08-22T14:29:43.008Z,40.80
2018-08-22T14:32:12.195Z,41.30
2018-08-22T14:34:41.270Z,40.60
2018-08-22T14:37:11.003Z,41.20
2018-08-22T14:39:40.145Z,43.30
2018-08-22T14:42:09.376Z,42.50
2018-08-22T14:44:38.506Z,40.30
2018-08-22T14:47:07.595Z,39.90
2018-08-22T14:49:36.801Z,39.90
2018-08-22T14:52:05.919Z,40.20
2018-08-22T14:54:35.632Z,40.40
2018-08-22T14:57:05.061Z,40.10
2018-08-22T14:59:34.337Z,41.00
2018-08-22T15:02:03.530Z,40.30
2018-08-22T15:04:33.146Z,39.20
2018-08-22T15:07:02.242Z,38.60
2018-08-22T15:09:31.393Z,38.60
2018-08-22T15:12:00.453Z,39.30
2018-08-22T15:14:29.689Z,37.80
2018-08-22T15:16:58.800Z,38.10
2018-08-22T15:19:27.979Z,38.30
2018-08-22T15:21:57.132Z,39.10
2018-08-22T15:24:26.319Z,39.40
2018-08-22T15:26:55.786Z,39.20
2018-08-22T15:29:24.892Z,39.70
2018-08-22T15:31:54.065Z,39.80
2018-08-22T15:34:24.004Z,39.70
2018-08-22T15:36:53.228Z,39.90
2018-08-22T15:39:30.035Z,40.40
2018-08-22T15:41:59.580Z,39.20
2018-08-22T15:44:28.875Z,40.20
2018-08-22T15:46:57.943Z,39.30
2018-08-22T15:49:27.152Z,40.30
2018-08-22T15:51:56.392Z,41.30
2018-08-22T15:54:25.564Z,41.50
2018-08-22T15:56:54.682Z,40.90
2018-08-22T15:59:23.836Z,41.10
2018-08-22T16:01:53.036Z,41.40
2018-08-22T16:04:22.118Z,41.50
2018-08-22T16:06:57.219Z,40.70
2018-08-22T16:09:30.889Z,40.80
2018-08-22T16:12:00.265Z,41.90
2018-08-22T16:14:29.587Z,42.40
2018-08-22T16:16:58.702Z,42.90
2018-08-22T16:19:27.864Z,43.00
2018-08-22T16:21:56.904Z,42.40
2018-08-22T16:24:27.624Z,43.40
2018-08-22T16:26:57.003Z,43.10
2018-08-22T16:29:26.399Z,43.40
2018-08-22T16:31:55.914Z,43.50
2018-08-22T16:34:25.157Z,44.30
2018-08-22T16:36:54.271Z,45.30
2018-08-22T16:39:39.885Z,45.00
2018-08-22T16:42:09.718Z,45.00
2018-08-22T16:44:39.124Z,45.60
2018-08-22T16:47:08.217Z,45.80
2018-08-22T16:49:37.345Z,46.60
2018-08-22T16:52:06.413Z,46.60
2018-08-22T16:54:35.611Z,47.20
2018-08-22T16:57:04.742Z,46.70
2018-08-22T16:59:33.847Z,47.30
2018-08-22T17:02:02.972Z,46.50
2018-08-22T17:04:32.107Z,47.40
2018-08-22T17:07:05.523Z,47.90
2018-08-22T17:09:36.409Z,48.10
2018-08-22T17:12:06.671Z,48.00
2018-08-22T17:14:35.957Z,48.40
2018-08-22T17:17:05.331Z,48.10
2018-08-22T17:19:34.425Z,48.20
2018-08-22T17:22:03.522Z,48.40
2018-08-22T17:24:32.625Z,49.40
2018-08-22T17:27:01.715Z,49.10
2018-08-22T17:29:30.831Z,49.00
2018-08-22T17:32:04.031Z,49.40
2018-08-22T17:34:33.701Z,50.90
2018-08-22T17:37:07.399Z,52.40
2018-08-22T17:39:36.757Z,52.50
2018-08-22T17:42:05.886Z,53.10
2018-08-22T17:44:34.988Z,52.00
2018-08-22T17:47:04.107Z,53.20
2018-08-22T17:49:33.266Z,53.10
2018-08-22T17:52:06.353Z,53.10
2018-08-22T17:54:35.761Z,54.60
2018-08-22T17:57:14.091Z,55.10
2018-08-22T17:59:44.367Z,55.40
2018-08-22T18:02:13.543Z,54.70
2018-08-22T18:04:54.525Z,56.00
2018-08-22T18:07:23.641Z,57.40
2018-08-22T18:09:52.822Z,58.10
2018-08-22T18:12:24.793Z,62.00
2018-08-22T18:14:56.136Z,63.50
2018-08-22T18:17:25.252Z,67.90
2018-08-22T18:19:54.376Z,69.90
2018-08-22T18:22:27.240Z,72.90
2018-08-22T18:24:57.235Z,75.70
2018-08-22T18:27:26.869Z,77.70
2018-08-22T18:29:55.982Z,78.90
2018-08-22T18:32:25.077Z,80.90
2018-08-22T18:34:59.816Z,83.50
2018-08-22T18:37:30.156Z,84.80
2018-08-22T18:40:12.300Z,85.00
2018-08-22T18:42:41.967Z,81.80
2018-08-22T18:45:11.101Z,83.10
2018-08-22T18:47:40.376Z,83.90
2018-08-22T18:50:09.631Z,86.70
2018-08-22T18:52:39.097Z,87.30
2018-08-22T18:55:08.264Z,89.80
2018-08-22T18:57:37.419Z,91.50
2018-08-22T19:00:08.166Z,92.60
2018-08-22T19:02:37.320Z,93.20
2018-08-22T19:05:27.027Z,93.80
2018-08-22T19:08:04.402Z,94.50
2018-08-22T19:10:37.380Z,94.90
2018-08-22T19:13:11.819Z,95.00
2018-08-22T19:15:41.686Z,95.20
2018-08-22T19:18:10.822Z,96.40
2018-08-22T19:20:39.966Z,96.40
2018-08-22T19:23:09.481Z,96.40
2018-08-22T19:25:38.607Z,96.90
2018-08-22T19:28:07.629Z,97.20
2018-08-22T19:30:38.312Z,98.40
2018-08-22T19:33:12.070Z,99.00
2018-08-22T19:35:41.415Z,99.40
2018-08-22T19:38:10.497Z,99.30
2018-08-22T19:40:39.691Z,99.60
2018-08-22T19:43:08.864Z,99.70
2018-08-22T19:45:38.062Z,99.90
2018-08-22T19:48:07.151Z,99.90
2018-08-22T19:50:36.612Z,99.90
2018-08-22T19:53:06.289Z,99.90
2018-08-22T19:55:37.383Z,99.90
2018-08-22T19:58:06.912Z,99.90
2018-08-22T20:00:36.145Z,99.90
2018-08-22T20:03:05.340Z,99.90
2018-08-22T20:05:49.160Z,99.90
2018-08-22T20:08:19.602Z,99.90
2018-08-22T20:10:48.718Z,99.90
2018-08-22T20:13:17.885Z,99.90
2018-08-22T20:15:46.967Z,99.90
2018-08-22T20:18:17.800Z,99.90
2018-08-22T20:20:47.125Z,99.90
2018-08-22T20:23:16.281Z,99.90
2018-08-22T20:25:45.538Z,99.90
2018-08-22T20:28:14.633Z,99.90
2018-08-22T20:30:43.992Z,99.90
2018-08-22T20:33:13.157Z,99.90
2018-08-22T20:35:42.914Z,99.90
2018-08-22T20:38:12.844Z,99.90
2018-08-22T20:40:41.997Z,99.90
2018-08-22T20:43:43.537Z,99.90
2018-08-22T20:46:13.856Z,99.90
2018-08-22T20:48:43.039Z,99.90
2018-08-22T20:51:12.136Z,99.90
2018-08-22T20:53:41.213Z,99.90
2018-08-22T20:56:10.352Z,99.90
2018-08-22T20:58:42.645Z,99.90
2018-08-22T21:01:12.840Z,99.90
2018-08-22T21:03:42.099Z,99.90
2018-08-22T21:06:11.365Z,99.90
2018-08-22T21:08:40.539Z,99.90
2018-08-22T21:11:09.759Z,99.90
2018-08-22T21:13:38.811Z,99.90
2018-08-22T21:16:08.278Z,99.90
2018-08-22T21:18:37.457Z,99.90
2018-08-22T21:21:10.880Z,99.90
2018-08-22T21:23:40.531Z,99.90
2018-08-22T21:26:09.621Z,99.90
2018-08-22T21:28:42.282Z,99.90
2018-08-22T21:31:11.597Z,99.90
2018-08-22T21:33:40.735Z,99.90
2018-08-22T21:36:09.945Z,99.90
2018-08-22T21:38:39.063Z,99.90
2018-08-22T21:41:08.219Z,99.90
2018-08-22T21:43:37.333Z,99.90
2018-08-22T21:46:06.655Z,99.90
2018-08-22T21:48:35.897Z,99.90
2018-08-22T21:51:05.001Z,99.90
2018-08-22T21:53:34.124Z,99.90
2018-08-22T21:56:03.307Z,99.90
2018-08-22T21:58:32.721Z,99.90
2018-08-22T22:01:04.499Z,99.90
2018-08-22T22:03:33.596Z,99.90
2018-08-22T22:06:03.374Z,99.90
2018-08-22T22:08:32.616Z,99.90
2018-08-22T22:11:03.658Z,99.90
2018-08-22T22:13:32.906Z,99.90
2018-08-22T22:16:03.689Z,99.90
2018-08-22T22:18:33.877Z,99.90
2018-08-22T22:21:11.108Z,99.90
2018-08-22T22:23:45.300Z,99.90
2018-08-22T22:26:15.731Z,99.90
2018-08-22T22:28:44.949Z,99.90
2018-08-22T22:31:16.409Z,99.90
2018-08-22T22:33:47.959Z,99.90
2018-08-22T22:36:17.275Z,99.90
2018-08-22T22:38:46.387Z,99.90
2018-08-22T22:41:15.505Z,99.90
2018-08-22T22:43:44.598Z,99.90
2018-08-22T22:46:13.729Z,99.90
2018-08-22T22:48:44.073Z,99.90
2018-08-22T22:51:13.214Z,99.90
2018-08-22T22:53:42.347Z,99.90
2018-08-22T22:56:11.559Z,99.90
2018-08-22T22:58:40.669Z,99.90
2018-08-22T23:01:09.766Z,99.90
2018-08-22T23:03:40.818Z,99.90
2018-08-22T23:06:10.168Z,99.90
2018-08-22T23:08:39.473Z,99.90
2018-08-22T23:11:08.601Z,99.90
2018-08-22T23:13:37.691Z,99.90
2018-08-22T23:16:06.789Z,99.90
2018-08-22T23:18:35.956Z,99.90
2018-08-22T23:21:05.192Z,99.90
2018-08-22T23:23:38.187Z,99.90
2018-08-22T23:26:14.620Z,99.90
2018-08-22T23:28:44.747Z,99.90
2018-08-22T23:31:16.608Z,99.90
2018-08-22T23:33:45.771Z,99.90
2018-08-22T23:36:14.865Z,99.90
2018-08-22T23:38:43.928Z,99.90
2018-08-22T23:41:12.989Z,99.90
2018-08-22T23:43:52.847Z,99.90
2018-08-22T23:46:22.136Z,99.90
2018-08-22T23:48:55.278Z,99.90
2018-08-22T23:51:24.588Z,99.90
2018-08-22T23:53:57.796Z,99.90
2018-08-22T23:56:28.037Z,99.90
2018-08-22T23:58:57.652Z,99.90
